createdAt,value
2022-12-08T00:02:10.557Z,3.35
2022-12-08T00:05:32.699Z,3.38
2022-12-08T00:08:54.595Z,2.97
2022-12-08T00:12:01.060Z,3.58
2022-12-08T00:15:04.609Z,2.15
2022-12-08T00:18:08.183Z,3.40
2022-12-08T00:21:11.396Z,3.53
2022-12-08T00:24:14.947Z,2.30
2022-12-08T00:27:18.791Z,2.45
2022-12-08T00:30:21.980Z,3.85
2022-12-08T00:33:25.453Z,2.03
2022-12-08T00:36:31.472Z,2.83
2022-12-08T00:39:34.820Z,2.15
2022-12-08T00:42:38.148Z,1.25
2022-12-08T00:45:41.491Z,2.80
2022-12-08T00:48:44.767Z,2.95
2022-12-08T00:51:48.069Z,2.50
2022-12-08T00:54:51.352Z,3.30
2022-12-08T00:57:54.616Z,1.30
2022-12-08T01:00:57.857Z,1.77
2022-12-08T01:04:18.607Z,1.70
2022-12-08T01:07:24.788Z,1.70
2022-12-08T01:10:28.605Z,1.85
2022-12-08T01:13:31.814Z,2.35
2022-12-08T01:16:36.761Z,2.28
2022-12-08T01:19:40.031Z,2.53
2022-12-08T01:22:43.312Z,1.65
2022-12-08T01:25:46.531Z,1.10
2022-12-08T01:28:49.945Z,2.20
2022-12-08T01:31:53.222Z,1.98
2022-12-08T01:34:56.397Z,1.98
2022-12-08T01:37:59.660Z,2.70
2022-12-08T01:41:03.008Z,5.47
2022-12-08T01:44:12.632Z,1.42
2022-12-08T01:47:16.128Z,3.33
2022-12-08T01:50:24.285Z,1.40
2022-12-08T01:53:33.590Z,2.15
2022-12-08T01:56:58.888Z,1.63
2022-12-08T02:00:09.592Z,2.50
2022-12-08T02:03:26.877Z,1.92
2022-12-08T02:06:34.608Z,3.15
2022-12-08T02:09:39.641Z,3.08
2022-12-08T02:12:44.669Z,1.98
2022-12-08T02:15:56.919Z,2.72
2022-12-08T02:19:36.645Z,1.65
2022-12-08T02:23:26.110Z,3.28
2022-12-08T02:26:53.665Z,3.95
2022-12-08T02:30:24.365Z,2.33
2022-12-08T02:33:27.720Z,1.75
2022-12-08T02:37:27.426Z,2.83
2022-12-08T02:40:40.636Z,3.42
2022-12-08T02:43:48.268Z,2.50
2022-12-08T02:47:09.902Z,4.75
2022-12-08T02:50:13.885Z,1.55
2022-12-08T02:53:17.109Z,1.65
2022-12-08T02:56:22.980Z,2.28
2022-12-08T02:59:47.129Z,2.20
2022-12-08T03:03:05.427Z,2.53
2022-12-08T03:06:33.265Z,3.55
2022-12-08T03:10:02.288Z,2.90
2022-12-08T03:13:12.144Z,2.72
2022-12-08T03:16:20.789Z,1.55
2022-12-08T03:19:29.747Z,1.33
2022-12-08T03:22:37.225Z,1.88
2022-12-08T03:25:47.222Z,1.45
2022-12-08T03:28:50.603Z,1.20
2022-12-08T03:32:02.090Z,1.05
2022-12-08T03:35:15.292Z,0.93
2022-12-08T03:38:18.841Z,1.17
2022-12-08T03:44:40.381Z,1.05
2022-12-08T03:47:43.670Z,2.45
2022-12-08T03:50:46.850Z,1.95
2022-12-08T03:53:50.472Z,3.03
2022-12-08T03:56:53.845Z,1.63
2022-12-08T03:59:57.169Z,1.92
2022-12-08T04:03:00.581Z,1.73
2022-12-08T04:06:04.431Z,2.00
2022-12-08T04:09:07.724Z,2.75
2022-12-08T04:12:11.184Z,3.08
2022-12-08T04:15:14.475Z,2.05
2022-12-08T04:18:17.747Z,3.35
2022-12-08T04:21:21.944Z,2.40
2022-12-08T04:24:25.219Z,3.80
2022-12-08T04:27:28.557Z,3.63
2022-12-08T04:30:32.090Z,2.20
2022-12-08T04:33:39.315Z,0.75
2022-12-08T04:36:42.637Z,1.00
2022-12-08T04:39:45.793Z,1.80
2022-12-08T04:42:49.093Z,2.17
2022-12-08T04:45:55.259Z,2.63
2022-12-08T04:48:58.761Z,2.90
2022-12-08T04:52:02.045Z,3.42
2022-12-08T04:55:05.832Z,2.35
2022-12-08T04:58:09.049Z,3.17
2022-12-08T05:01:13.801Z,1.60
2022-12-08T05:04:17.950Z,1.90
2022-12-08T05:07:21.193Z,4.38
2022-12-08T05:10:24.549Z,1.33
2022-12-08T05:13:27.757Z,2.17
2022-12-08T05:16:31.100Z,2.50
2022-12-08T05:19:35.258Z,1.85
2022-12-08T05:22:40.334Z,1.15
2022-12-08T05:25:43.592Z,1.17
2022-12-08T05:28:47.101Z,2.53
2022-12-08T05:31:50.414Z,2.40
2022-12-08T05:34:53.751Z,1.48
2022-12-08T05:37:56.978Z,1.50
2022-12-08T05:41:00.532Z,3.08
2022-12-08T05:44:03.801Z,3.22
2022-12-08T05:47:07.056Z,1.48
2022-12-08T05:50:10.474Z,1.55
2022-12-08T05:53:13.667Z,2.20
2022-12-08T05:56:17.162Z,2.42
2022-12-08T05:59:20.545Z,2.30
2022-12-08T06:02:23.850Z,2.78
2022-12-08T06:05:27.630Z,2.00
2022-12-08T06:08:34.861Z,1.80
2022-12-08T06:11:38.107Z,0.90
2022-12-08T06:14:41.562Z,2.50
2022-12-08T06:17:45.047Z,1.58
2022-12-08T06:20:49.184Z,2.38
2022-12-08T06:23:54.500Z,3.13
2022-12-08T06:26:57.830Z,2.03
2022-12-08T06:30:01.531Z,2.45
2022-12-08T06:33:04.909Z,2.45
2022-12-08T06:36:08.634Z,3.28
2022-12-08T06:39:11.922Z,4.50
2022-12-08T06:42:33.665Z,3.55
2022-12-08T06:45:37.157Z,4.63
2022-12-08T06:48:40.487Z,1.23
2022-12-08T06:51:43.748Z,2.15
2022-12-08T06:54:46.945Z,3.33
2022-12-08T06:57:53.394Z,3.35
2022-12-08T07:00:57.230Z,2.67
2022-12-08T07:04:00.481Z,3.60
2022-12-08T07:07:03.619Z,3.17
2022-12-08T07:10:07.771Z,2.67
2022-12-08T07:13:11.163Z,3.53
2022-12-08T07:16:14.479Z,2.83
2022-12-08T07:19:18.061Z,4.50
2022-12-08T07:22:21.445Z,3.17
2022-12-08T07:25:24.692Z,4.80
2022-12-08T07:28:27.915Z,5.72
2022-12-08T07:31:31.119Z,5.47
2022-12-08T07:34:34.314Z,4.40
2022-12-08T07:37:38.286Z,5.53
2022-12-08T07:40:41.559Z,5.78
2022-12-08T07:43:45.492Z,4.57
2022-12-08T07:50:06.191Z,5.30
2022-12-08T07:53:09.926Z,2.58
2022-12-08T07:56:14.325Z,5.32
2022-12-08T07:59:17.659Z,6.43
2022-12-08T08:02:24.969Z,5.82
2022-12-08T08:05:29.166Z,6.20
2022-12-08T08:08:32.918Z,5.07
2022-12-08T08:11:36.254Z,6.38
2022-12-08T08:14:39.517Z,3.10
2022-12-08T08:17:42.762Z,5.43
2022-12-08T08:20:45.986Z,4.55
2022-12-08T08:23:49.426Z,4.35
2022-12-08T08:26:54.251Z,4.25
2022-12-08T08:29:57.434Z,4.57
2022-12-08T08:33:01.479Z,6.20
2022-12-08T08:36:08.949Z,5.25
2022-12-08T08:39:13.207Z,5.97
2022-12-08T08:42:16.439Z,7.28
2022-12-08T08:45:19.715Z,4.35
2022-12-08T08:48:22.974Z,4.85
2022-12-08T08:51:28.155Z,6.93
2022-12-08T08:54:34.272Z,5.60
2022-12-08T08:57:37.666Z,6.05
2022-12-08T09:00:40.972Z,3.85
2022-12-08T09:03:45.173Z,5.93
2022-12-08T09:06:52.269Z,6.93
2022-12-08T09:10:01.349Z,7.10
2022-12-08T09:13:09.608Z,7.22
2022-12-08T09:16:13.319Z,6.43
2022-12-08T09:19:17.201Z,6.43
2022-12-08T09:22:24.729Z,8.23
2022-12-08T09:25:30.979Z,7.60
2022-12-08T09:28:34.380Z,7.03
2022-12-08T09:31:38.220Z,5.15
2022-12-08T09:34:48.969Z,5.97
2022-12-08T09:37:55.186Z,9.07
2022-12-08T09:40:59.339Z,11.20
2022-12-08T09:44:47.055Z,8.13
2022-12-08T09:48:31.384Z,6.55
2022-12-08T09:51:39.300Z,5.13
2022-12-08T09:54:42.662Z,6.10
2022-12-08T09:57:46.074Z,5.63
2022-12-08T10:00:49.405Z,5.78
2022-12-08T10:03:55.450Z,5.88
2022-12-08T10:07:05.823Z,6.90
2022-12-08T10:28:12.859Z,5.70
2022-12-08T10:31:18.405Z,6.13
2022-12-08T10:34:25.636Z,8.30
2022-12-08T10:37:28.925Z,7.05
2022-12-08T10:40:42.320Z,6.43
2022-12-08T10:44:00.055Z,6.57
2022-12-08T10:47:13.328Z,6.75
2022-12-08T10:50:21.392Z,6.20
2022-12-08T10:53:27.261Z,5.35
2022-12-08T10:56:32.219Z,7.15
2022-12-08T10:59:35.617Z,6.28
2022-12-08T11:03:01.496Z,6.80
2022-12-08T11:06:24.802Z,4.60
2022-12-08T11:09:50.198Z,4.75
2022-12-08T11:12:53.451Z,5.75
2022-12-08T11:16:00.302Z,4.88
2022-12-08T11:19:08.129Z,4.70
2022-12-08T11:22:34.834Z,6.72
2022-12-08T11:25:38.259Z,5.72
2022-12-08T11:28:43.309Z,4.82
2022-12-08T11:32:04.373Z,8.35
2022-12-08T11:35:19.815Z,4.72
2022-12-08T11:38:26.954Z,6.70
2022-12-08T11:41:43.765Z,6.10
2022-12-08T11:44:57.599Z,4.63
2022-12-08T11:48:12.507Z,4.88
2022-12-08T11:51:51.860Z,7.07
2022-12-08T11:55:18.040Z,6.38
2022-12-08T11:58:51.269Z,4.88
2022-12-08T12:01:54.823Z,3.83
2022-12-08T12:05:33.672Z,5.65
2022-12-08T12:09:17.598Z,5.50
2022-12-08T12:12:31.654Z,4.88
2022-12-08T12:16:14.904Z,5.20
2022-12-08T12:19:21.086Z,5.20
2022-12-08T12:22:51.145Z,4.78
2022-12-08T12:26:01.560Z,3.75
2022-12-08T12:29:20.461Z,4.00
2022-12-08T12:32:24.976Z,2.88
2022-12-08T12:35:39.252Z,2.85
2022-12-08T12:39:06.923Z,4.93
2022-12-08T12:42:46.530Z,4.03
2022-12-08T12:45:49.875Z,3.88
2022-12-08T12:48:53.972Z,3.95
2022-12-08T12:51:57.240Z,3.42
2022-12-08T12:55:00.392Z,3.58
2022-12-08T12:58:04.921Z,3.88
2022-12-08T13:01:11.309Z,2.83
2022-12-08T13:04:14.775Z,3.92
2022-12-08T13:07:33.080Z,4.10
2022-12-08T13:10:40.620Z,3.03
2022-12-08T13:14:04.648Z,2.65
2022-12-08T13:17:14.196Z,2.17
2022-12-08T13:20:28.074Z,3.13
2022-12-08T13:23:39.051Z,3.45
2022-12-08T13:26:46.747Z,3.47
2022-12-08T13:30:31.812Z,4.45
2022-12-08T13:33:42.728Z,4.60
2022-12-08T13:36:59.056Z,4.07
2022-12-08T13:40:20.953Z,3.35
2022-12-08T13:43:48.270Z,2.33
2022-12-08T13:57:40.571Z,4.38
2022-12-08T14:00:43.928Z,2.72
2022-12-08T14:07:23.528Z,4.43
2022-12-08T14:10:28.144Z,5.05
2022-12-08T14:13:32.609Z,5.20
2022-12-08T14:16:42.365Z,3.92
2022-12-08T14:19:54.124Z,2.45
2022-12-08T14:23:00.451Z,2.92
2022-12-08T14:26:06.022Z,2.83
2022-12-08T14:29:10.577Z,2.60
2022-12-08T14:32:31.006Z,4.30
2022-12-08T14:35:37.471Z,2.85
2022-12-08T14:38:40.919Z,3.28
2022-12-08T14:42:01.923Z,5.03
2022-12-08T14:45:11.038Z,3.55
2022-12-08T14:48:21.409Z,4.93
2022-12-08T14:51:33.752Z,6.22
2022-12-08T14:54:37.120Z,4.60
2022-12-08T14:57:40.424Z,4.43
2022-12-08T15:00:53.627Z,5.35
2022-12-08T15:04:27.776Z,5.28
2022-12-08T15:07:53.242Z,4.90
2022-12-08T15:11:20.242Z,2.60
2022-12-08T15:14:36.544Z,3.97
2022-12-08T15:18:12.758Z,2.65
2022-12-08T15:21:15.983Z,3.22
2022-12-08T15:24:22.813Z,1.85
2022-12-08T15:27:29.056Z,1.45
2022-12-08T15:30:32.637Z,2.88
2022-12-08T15:33:38.207Z,3.10
2022-12-08T15:36:44.149Z,3.50
2022-12-08T15:39:50.125Z,2.38
2022-12-08T15:42:53.948Z,3.70
2022-12-08T15:46:00.095Z,2.92
2022-12-08T15:49:03.885Z,3.00
2022-12-08T15:52:15.541Z,3.63
2022-12-08T15:55:20.514Z,2.88
2022-12-08T16:01:49.418Z,3.75
2022-12-08T16:12:09.875Z,3.65
2022-12-08T16:18:40.723Z,3.83
2022-12-08T16:25:18.391Z,3.53
2022-12-08T16:28:52.928Z,2.92
2022-12-08T16:31:45.883Z,2.63
2022-12-08T16:34:50.332Z,2.47
2022-12-08T16:37:53.613Z,3.80
2022-12-08T16:41:15.188Z,3.22
2022-12-08T16:44:18.522Z,3.45
2022-12-08T16:47:21.741Z,3.15
2022-12-08T16:50:35.667Z,2.50
2022-12-08T16:53:38.885Z,2.15
2022-12-08T16:56:44.724Z,2.25
2022-12-08T16:59:47.901Z,2.75
2022-12-08T17:02:52.007Z,3.08
2022-12-08T17:05:55.266Z,3.03
2022-12-08T17:08:58.440Z,2.55
2022-12-08T17:12:04.002Z,3.20
2022-12-08T17:15:13.892Z,2.25
2022-12-08T17:18:19.460Z,2.80
2022-12-08T17:21:22.730Z,2.15
2022-12-08T17:24:29.644Z,2.38
2022-12-08T17:27:33.144Z,1.98
2022-12-08T17:30:39.199Z,1.48
2022-12-08T17:33:42.898Z,1.55
2022-12-08T17:36:46.101Z,2.08
2022-12-08T17:39:49.352Z,2.53
2022-12-08T17:42:52.591Z,1.80
2022-12-08T17:45:56.826Z,2.35
2022-12-08T17:48:59.972Z,1.95
2022-12-08T17:52:05.397Z,1.48
2022-12-08T17:55:09.069Z,2.65
2022-12-08T17:58:12.336Z,1.25
2022-12-08T18:01:15.650Z,1.58
2022-12-08T18:04:19.074Z,2.28
2022-12-08T18:07:22.408Z,1.02
2022-12-08T18:10:25.661Z,1.90
2022-12-08T18:13:29.020Z,1.55
2022-12-08T18:16:32.279Z,0.77
2022-12-08T18:19:35.562Z,1.65
2022-12-08T18:22:38.858Z,1.02
2022-12-08T18:25:42.127Z,1.60
2022-12-08T18:28:45.551Z,1.35
2022-12-08T18:31:48.982Z,1.33
2022-12-08T18:34:52.241Z,1.10
2022-12-08T18:37:55.980Z,1.45
2022-12-08T18:41:12.476Z,1.35
2022-12-08T18:44:15.818Z,1.02
2022-12-08T18:47:21.294Z,0.35
2022-12-08T18:50:24.699Z,1.15
2022-12-08T18:53:27.878Z,1.75
2022-12-08T18:56:33.472Z,2.03
2022-12-08T18:59:36.620Z,1.20
2022-12-08T19:02:40.593Z,1.40
2022-12-08T19:05:43.943Z,1.48
2022-12-08T19:08:49.022Z,1.23
2022-12-08T19:11:52.400Z,1.42
2022-12-08T19:14:55.677Z,1.90
2022-12-08T19:18:00.436Z,1.27
2022-12-08T19:21:03.708Z,2.40
2022-12-08T19:24:07.604Z,2.78
2022-12-08T19:27:11.003Z,1.52
2022-12-08T19:30:14.990Z,1.73
2022-12-08T19:33:18.257Z,0.50
2022-12-08T19:36:23.187Z,1.23
2022-12-08T19:39:44.693Z,1.20
2022-12-08T19:43:06.093Z,1.15
2022-12-08T19:46:09.699Z,1.42
2022-12-08T19:49:13.114Z,1.15
2022-12-08T19:52:16.711Z,2.15
2022-12-08T19:55:20.116Z,2.67
2022-12-08T19:58:24.614Z,2.25
2022-12-08T20:01:27.908Z,1.40
2022-12-08T20:04:31.404Z,2.38
2022-12-08T20:07:35.270Z,2.78
2022-12-08T20:10:41.686Z,3.15
2022-12-08T20:13:46.268Z,2.47
2022-12-08T20:16:49.883Z,2.25
2022-12-08T20:19:53.656Z,2.20
2022-12-08T20:22:57.251Z,1.45
2022-12-08T20:26:07.529Z,1.65
2022-12-08T20:29:15.375Z,1.30
2022-12-08T20:32:18.852Z,1.27
2022-12-08T20:35:22.304Z,1.48
2022-12-08T20:38:25.577Z,1.83
2022-12-08T20:41:28.837Z,2.28
2022-12-08T20:44:32.126Z,2.40
2022-12-08T20:47:36.548Z,2.45
2022-12-08T20:50:40.003Z,2.58
2022-12-08T20:53:43.386Z,2.95
2022-12-08T20:56:48.492Z,3.88
2022-12-08T20:59:52.306Z,5.35
2022-12-08T21:02:57.064Z,5.40
2022-12-08T21:06:02.530Z,4.20
2022-12-08T21:09:05.871Z,2.25
2022-12-08T21:12:09.379Z,2.13
2022-12-08T21:15:13.222Z,2.67
2022-12-08T21:18:17.670Z,1.90
2022-12-08T21:21:23.257Z,0.98
2022-12-08T21:24:31.991Z,2.75
2022-12-08T21:27:38.685Z,1.80
2022-12-08T21:30:43.828Z,1.65
2022-12-08T21:33:47.054Z,1.45
2022-12-08T21:36:51.144Z,1.13
2022-12-08T21:39:54.690Z,2.72
2022-12-08T21:42:57.992Z,1.92
2022-12-08T21:46:01.415Z,3.55
2022-12-08T21:49:05.097Z,3.53
2022-12-08T21:52:11.646Z,3.75
2022-12-08T21:55:16.396Z,2.92
2022-12-08T21:58:19.770Z,1.83
2022-12-08T22:01:23.191Z,2.15
2022-12-08T22:04:29.649Z,3.35
2022-12-08T22:07:43.858Z,2.90
2022-12-08T22:10:50.534Z,2.88
2022-12-08T22:13:53.882Z,3.25
2022-12-08T22:16:57.176Z,2.08
2022-12-08T22:20:00.612Z,3.50
2022-12-08T22:23:04.151Z,3.65
2022-12-08T22:26:08.730Z,4.55
2022-12-08T22:29:12.196Z,3.67
2022-12-08T22:32:16.144Z,3.35
2022-12-08T22:35:21.879Z,3.30
2022-12-08T22:38:26.080Z,4.60
2022-12-08T22:41:29.444Z,2.80
2022-12-08T22:44:34.467Z,2.47
2022-12-08T22:47:37.859Z,2.55
2022-12-08T22:50:41.852Z,4.82
2022-12-08T22:53:45.628Z,4.57
2022-12-08T22:56:48.837Z,4.10
2022-12-08T22:59:53.622Z,1.30
2022-12-08T23:02:57.090Z,1.63
2022-12-08T23:06:00.733Z,2.08
2022-12-08T23:09:04.293Z,2.60
2022-12-08T23:12:08.239Z,2.75
2022-12-08T23:15:11.624Z,3.38
2022-12-08T23:18:16.650Z,2.65
2022-12-08T23:21:21.023Z,4.07
2022-12-08T23:24:24.560Z,3.35
2022-12-08T23:27:27.931Z,3.92
2022-12-08T23:30:31.608Z,4.15
2022-12-08T23:33:35.107Z,4.25
2022-12-08T23:36:41.840Z,3.50
2022-12-08T23:39:45.145Z,5.35
2022-12-08T23:42:48.959Z,4.18
2022-12-08T23:45:52.267Z,3.05
2022-12-08T23:48:55.588Z,4.22
2022-12-08T23:51:58.943Z,5.50
2022-12-08T23:55:02.145Z,5.18
2022-12-08T23:58:05.625Z,3.63
